Time,TemperatureF,DewpointF,PressureIn,WindDirection,WindDirectionDegrees,WindSpeedMPH,WindSpeedGustMPH,Humidity,HourlyPrecipIn,Conditions,Clouds,dailyrainin,SoftwareType,DateUTC
2013-09-22 00:02:00,-999.0,-99.9,29.64,South,179,6.0,14.0,-999,-99.99,,,-99.99,,2013-09-22 04:02:00,
2013-09-22 00:23:00,69.0,66.0,29.64,South,172,9.0,9.0,91,0.15,,,0.21,,2013-09-22 04:23:00,
2013-09-22 00:54:00,69.0,67.0,29.63,WSW,243,3.0,6.0,92,0.15,,,0.28,,2013-09-22 04:54:00,
2013-09-22 01:13:00,67.0,64.0,29.64,NW,311,3.0,6.0,91,0.23,,,0.42,,2013-09-22 05:13:00,
2013-09-22 01:23:00,67.0,64.0,29.64,NW,311,3.0,6.0,91,0.23,,,0.42,,2013-09-22 05:23:00,
2013-09-22 01:53:00,65.0,62.0,29.65,North,349,3.0,3.0,91,0.24,,,0.47,,2013-09-22 05:53:00,
2013-09-22 02:12:00,63.0,60.0,29.65,North,356,0.0,2.0,91,0.11,,,0.53,,2013-09-22 06:12:00,
2013-09-22 02:22:00,63.0,60.0,29.65,North,356,0.0,2.0,91,0.11,,,0.53,,2013-09-22 06:22:00,
2013-09-22 02:52:00,63.0,61.0,29.65,NNW,345,3.0,4.0,92,0.19,,,0.68,,2013-09-22 06:52:00,
2013-09-22 03:22:00,62.0,60.0,29.65,NNW,345,0.0,0.0,93,0.16,,,0.69,,2013-09-22 07:22:00,
2013-09-22 03:52:00,63.0,61.0,29.64,NNW,345,0.0,0.0,93,0.08,,,0.69,,2013-09-22 07:52:00,
2013-09-22 04:22:00,63.0,61.0,29.64,NNW,346,0.0,0.0,93,0.01,,,0.70,,2013-09-22 08:22:00,
2013-09-22 04:52:00,63.0,61.0,29.65,NNW,342,0.0,0.0,93,0.01,,,0.70,,2013-09-22 08:52:00,
2013-09-22 05:11:00,63.0,61.0,29.67,West,265,3.0,3.0,93,0.00,,,0.70,,2013-09-22 09:11:00,
2013-09-22 05:22:00,63.0,61.0,29.67,West,265,3.0,3.0,93,0.00,,,0.70,,2013-09-22 09:22:00,
2013-09-22 05:54:00,63.0,61.0,29.67,WSW,245,0.0,1.0,93,0.00,,,0.70,,2013-09-22 09:54:00,
2013-09-22 06:23:00,62.0,60.0,29.67,West,267,1.0,2.0,93,0.00,,,0.70,,2013-09-22 10:23:00,
2013-09-22 06:33:00,62.0,60.0,29.67,West,267,1.0,2.0,93,0.00,,,0.70,,2013-09-22 10:33:00,
2013-09-22 06:53:00,62.0,60.0,29.69,West,268,1.0,1.0,93,0.01,,,0.71,,2013-09-22 10:53:00,
2013-09-22 07:22:00,61.0,59.0,29.69,WNW,300,0.0,3.0,92,0.01,,,0.71,,2013-09-22 11:22:00,
2013-09-22 07:52:00,61.0,58.0,29.72,NNW,337,2.0,4.0,91,0.00,,,0.71,,2013-09-22 11:52:00,
2013-09-22 08:12:00,61.0,58.0,29.72,NW,325,0.0,4.0,91,0.00,,,0.71,,2013-09-22 12:12:00,
2013-09-22 08:22:00,61.0,58.0,29.72,NW,326,3.0,6.0,89,0.00,,,0.71,,2013-09-22 12:22:00,
2013-09-22 08:32:00,61.0,58.0,29.72,NW,326,3.0,6.0,89,0.00,,,0.71,,2013-09-22 12:32:00,
2013-09-22 08:52:00,60.0,55.0,29.73,North,351,5.0,13.0,83,0.00,,,0.71,,2013-09-22 12:52:00,
2013-09-22 09:12:00,60.0,55.0,29.73,North,351,5.0,13.0,83,0.00,,,0.71,,2013-09-22 13:12:00,
2013-09-22 09:22:00,61.0,54.0,29.73,NNW,338,3.0,8.0,77,0.00,,,0.71,,2013-09-22 13:22:00,
2013-09-22 09:52:00,62.0,52.0,29.73,NNW,331,3.0,8.0,71,0.00,,,0.71,,2013-09-22 13:52:00,
2013-09-22 10:22:00,64.0,50.0,29.74,NW,321,8.0,11.0,61,0.00,,,0.71,,2013-09-22 14:22:00,
2013-09-22 10:32:00,64.0,50.0,29.74,NW,321,8.0,11.0,61,0.00,,,0.71,,2013-09-22 14:32:00,
2013-09-22 10:52:00,66.0,48.0,29.75,North,349,10.0,14.0,53,0.00,,,0.71,,2013-09-22 14:52:00,
2013-09-22 11:23:00,67.0,47.0,29.75,WNW,296,3.0,13.0,48,0.00,,,0.71,,2013-09-22 15:23:00,
2013-09-22 11:55:00,68.0,47.0,29.75,NE,46,3.0,14.0,47,0.00,,,0.71,,2013-09-22 15:55:00,
2013-09-22 12:24:00,68.0,46.0,29.74,NNW,333,8.0,12.0,46,0.00,,,0.71,,2013-09-22 16:24:00,
2013-09-22 12:54:00,70.0,48.0,29.75,North,359,10.0,11.0,46,0.00,,,0.71,,2013-09-22 16:54:00,
2013-09-22 13:04:00,70.0,48.0,29.75,North,359,10.0,11.0,46,0.00,,,0.71,,2013-09-22 17:04:00,
2013-09-22 13:12:00,70.0,48.0,29.75,North,359,10.0,11.0,46,0.00,,,0.71,,2013-09-22 17:12:00,
2013-09-22 13:23:00,70.0,48.0,29.75,North,359,10.0,11.0,46,0.00,,,0.71,,2013-09-22 17:23:00,
2013-09-22 13:53:00,69.0,46.0,29.75,North,0,4.0,10.0,44,0.00,,,0.71,,2013-09-22 17:53:00,
2013-09-22 14:13:00,70.0,46.0,29.74,NNW,343,10.0,15.0,42,0.00,,,0.71,,2013-09-22 18:13:00,
2013-09-22 14:22:00,70.0,44.0,29.75,NW,319,6.0,13.0,39,0.00,,,0.71,,2013-09-22 18:22:00,
2013-09-22 14:52:00,69.0,44.0,29.75,NNW,330,4.0,14.0,41,0.00,,,0.71,,2013-09-22 18:52:00,
2013-09-22 15:22:00,70.0,45.0,29.75,WNW,286,8.0,13.0,40,0.00,,,0.71,,2013-09-22 19:22:00,
2013-09-22 15:32:00,70.0,45.0,29.75,WNW,286,8.0,13.0,40,0.00,,,0.71,,2013-09-22 19:32:00,
2013-09-22 15:53:00,67.0,44.0,29.76,NNW,348,8.0,18.0,43,0.00,,,0.71,,2013-09-22 19:53:00,
2013-09-22 16:22:00,67.0,43.0,29.76,NNW,345,16.0,16.0,41,0.00,,,0.71,,2013-09-22 20:22:00,
2013-09-22 16:52:00,66.0,42.0,29.76,NNW,333,10.0,12.0,42,0.00,,,0.71,,2013-09-22 20:52:00,
2013-09-22 17:23:00,66.0,44.0,29.77,North,349,3.0,16.0,45,0.00,,,0.71,,2013-09-22 21:23:00,
2013-09-22 17:34:00,66.0,44.0,29.77,North,349,3.0,16.0,45,0.00,,,0.71,,2013-09-22 21:34:00,
2013-09-22 17:54:00,66.0,44.0,29.77,NW,326,5.0,16.0,45,0.00,,,0.71,,2013-09-22 21:54:00,
2013-09-22 18:24:00,64.0,44.0,29.78,NNW,330,10.0,11.0,48,0.00,,,0.71,,2013-09-22 22:24:00,
2013-09-22 18:54:00,63.0,44.0,29.79,North,350,9.0,10.0,49,0.00,,,0.71,,2013-09-22 22:54:00,
2013-09-22 19:22:00,62.0,44.0,29.80,NNW,331,8.0,10.0,51,0.00,,,0.71,,2013-09-22 23:22:00,
2013-09-22 19:34:00,62.0,44.0,29.80,NNW,331,8.0,10.0,51,0.00,,,0.71,,2013-09-22 23:34:00,
2013-09-22 19:52:00,62.0,44.0,29.81,NW,326,10.0,14.0,52,0.00,,,0.71,,2013-09-22 23:52:00,
2013-09-22 20:01:00,62.0,44.0,29.81,NW,326,10.0,14.0,52,0.00,,,0.71,,2013-09-23 00:01:00,
2013-09-22 20:23:00,60.0,43.0,29.83,NNW,340,6.0,12.0,54,0.00,,,0.71,,2013-09-23 00:23:00,
2013-09-22 20:53:00,59.0,43.0,29.84,NW,323,9.0,9.0,56,0.00,,,0.71,,2013-09-23 00:53:00,
2013-09-22 21:12:00,59.0,44.0,29.85,NNW,347,2.0,6.0,57,0.00,,,0.71,,2013-09-23 01:12:00,
2013-09-22 21:22:00,59.0,44.0,29.85,NNW,347,2.0,6.0,57,0.00,,,0.71,,2013-09-23 01:22:00,
2013-09-22 21:32:00,59.0,44.0,29.85,NNW,347,2.0,6.0,57,0.00,,,0.71,,2013-09-23 01:32:00,
2013-09-22 21:52:00,58.0,43.0,29.87,NNW,333,4.0,7.0,58,0.00,,,0.71,,2013-09-23 01:52:00,
2013-09-22 22:22:00,57.0,42.0,29.87,NNW,335,2.0,6.0,57,0.00,,,0.71,,2013-09-23 02:22:00,
2013-09-22 22:32:00,57.0,42.0,29.87,NNW,335,2.0,6.0,57,0.00,,,0.71,,2013-09-23 02:32:00,
2013-09-22 22:52:00,57.0,43.0,29.88,NW,324,4.0,9.0,59,0.00,,,0.71,,2013-09-23 02:52:00,
2013-09-22 23:23:00,56.0,41.0,29.89,North,1,6.0,10.0,58,0.00,,,0.65,,2013-09-23 03:23:00,
2013-09-22 23:54:00,56.0,41.0,29.90,North,352,4.0,9.0,56,0.00,,,0.60,,2013-09-23 03:54:00,